KRUE

Russellville Regional Airport

Russellville, Arkansas, USA
METAR KRUE 200053Z AUTO 17007G15KT 10SM CLR 07/M03 A3007 RMK AO2 SLP184 T00721033
Observed Flight Rules
Jan-20 @ 00:53 UTC (26 minutes ago) Visual Flight Rules
Wind Visibility Clouds
170° at 7 knots
 Gusting to 15 knots
10 miles
  • Clear skies
Temperatures Readings
Current 7°C / 45°F
Dewpoint -3°C / 27°F
Humidity 49%
Altimeter 30.07" Hg
Pressure 1018.4 hPa
Elevation 115
METAR KRUE 200053Z AUTO 17007G15KT 10SM CLR 07/M03 A3007 RMK AO2 SLP184 T00721033
Observed Flight Rules
Jan-20 @ 00:53 UTC
(26 minutes ago)
VFR
Wind Visibility
170° at 7 knots
 Gusting to 15 knots
10 miles
Clouds
  • Clear skies
Temperature Dewpoint
7°C / 45°F -3°C / 27°F
Humidity Altimeter Pressure
49% 30.07" Hg 1018.4 hPa